Time;durP1;ratioP1;P1;durP2;ratioP2;P2;SDS_P1;SDS_P2;PMS_P1;PMS_P2;Temp;Humidity;BMP_temperature;BMP_pressure;BME280_temperature;BME280_humidity;BME280_pressure;Samples;Min_cycle;Max_cycle;Signal;HPM_P1;HPM_P2
2023/12/24 00:00:01;;;;;;;7.05;0.85;;;11.50;99.90;;;;;;4906736;28;93126;-75
2023/12/24 00:02:27;;;;;;;2.85;0.70;;;11.60;99.90;;;;;;4901229;28;92721;-76
2023/12/24 00:04:55;;;;;;;5.10;0.68;;;11.60;99.90;;;;;;4905309;28;95285;-76
2023/12/24 00:07:21;;;;;;;6.10;0.50;;;11.70;99.90;;;;;;4905589;28;96264;-76
2023/12/24 00:09:46;;;;;;;5.15;0.80;;;11.70;99.90;;;;;;4906123;28;92682;-76
2023/12/24 00:12:12;;;;;;;2.58;0.50;;;11.60;99.90;;;;;;4906668;28;92700;-76
2023/12/24 00:14:38;;;;;;;6.80;0.82;;;11.60;99.90;;;;;;4904076;28;93996;-76
2023/12/24 00:17:03;;;;;;;3.75;0.65;;;11.60;99.90;;;;;;4907634;28;93558;-76
2023/12/24 00:19:31;;;;;;;6.88;0.82;;;11.60;99.90;;;;;;4885296;28;92284;-76
2023/12/24 00:21:57;;;;;;;6.10;0.60;;;11.60;99.90;;;;;;4905446;28;91956;-76
2023/12/24 00:24:25;;;;;;;5.95;0.82;;;11.60;99.90;;;;;;4905877;28;95723;-75
2023/12/24 00:26:50;;;;;;;5.60;0.50;;;11.40;99.90;;;;;;4903648;28;93405;-77
2023/12/24 00:29:18;;;;;;;2.15;0.57;;;11.30;99.90;;;;;;4888310;28;93732;-75
2023/12/24 00:31:44;;;;;;;3.63;0.60;;;11.20;99.90;;;;;;4911183;28;93109;-75
2023/12/24 00:34:12;;;;;;;3.85;0.47;;;11.20;99.90;;;;;;4907275;28;93675;-74
2023/12/24 00:36:40;;;;;;;6.53;1.52;;;11.10;99.90;;;;;;4907371;28;93239;-75
2023/12/24 00:39:08;;;;;;;2.78;0.35;;;11.10;99.90;;;;;;4905172;28;93449;-76
2023/12/24 00:41:37;;;;;;;5.95;0.88;;;11.10;99.90;;;;;;4907161;28;92947;-76
2023/12/24 00:44:03;;;;;;;2.13;0.40;;;11.10;99.90;;;;;;4902726;28;94518;-76
2023/12/24 00:46:28;;;;;;;2.05;0.60;;;11.20;99.90;;;;;;4909348;28;93469;-75
2023/12/24 00:48:54;;;;;;;1.17;0.30;;;11.20;99.90;;;;;;4904710;28;92851;-75
2023/12/24 00:51:20;;;;;;;2.83;0.38;;;11.20;99.90;;;;;;4906006;28;93759;-76
2023/12/24 00:53:45;;;;;;;1.08;0.30;;;11.30;99.90;;;;;;4888789;28;96984;-75
2023/12/24 00:56:11;;;;;;;1.83;0.82;;;11.30;99.90;;;;;;4903886;28;93884;-75
2023/12/24 00:58:39;;;;;;;2.88;0.40;;;11.30;99.90;;;;;;4905563;28;101382;-75
2023/12/24 01:01:04;;;;;;;2.22;0.40;;;11.30;99.90;;;;;;4884179;28;93104;-75
2023/12/24 01:03:30;;;;;;;5.00;0.75;;;11.30;99.90;;;;;;4905288;28;93230;-75
2023/12/24 01:05:56;;;;;;;3.00;0.30;;;11.30;99.90;;;;;;4904599;28;93241;-75
2023/12/24 01:08:24;;;;;;;1.88;0.40;;;11.30;99.90;;;;;;4907764;28;92800;-75
2023/12/24 01:10:50;;;;;;;0.77;0.45;;;11.30;99.90;;;;;;4890084;28;92135;-76
2023/12/24 01:13:18;;;;;;;0.80;0.43;;;11.30;99.90;;;;;;4905991;28;92585;-76
2023/12/24 01:15:46;;;;;;;1.42;0.30;;;11.30;99.90;;;;;;4906192;28;93351;-75
2023/12/24 01:18:13;;;;;;;1.48;0.30;;;11.20;99.90;;;;;;4906141;28;93825;-76
2023/12/24 01:20:39;;;;;;;2.17;0.45;;;11.30;99.90;;;;;;4891488;28;92575;-76
2023/12/24 01:23:05;;;;;;;0.85;0.25;;;11.20;99.90;;;;;;4908066;28;93241;-76
2023/12/24 01:25:31;;;;;;;1.45;0.40;;;11.20;99.90;;;;;;4910179;28;95307;-76
2023/12/24 01:27:57;;;;;;;0.85;0.38;;;11.10;99.90;;;;;;4905984;28;93172;-76
2023/12/24 01:30:24;;;;;;;0.80;0.52;;;11.10;99.90;;;;;;4912582;28;92707;-76
2023/12/24 01:32:50;;;;;;;3.28;0.30;;;11.00;99.90;;;;;;4892680;28;96920;-75
2023/12/24 01:35:16;;;;;;;0.47;0.28;;;11.00;99.90;;;;;;4889529;28;97521;-76
2023/12/24 01:37:42;;;;;;;5.28;0.45;;;11.00;99.90;;;;;;4889163;28;92794;-75
2023/12/24 01:40:08;;;;;;;0.65;0.30;;;10.90;99.90;;;;;;4912898;28;93162;-76
2023/12/24 01:42:33;;;;;;;3.05;0.52;;;10.90;99.90;;;;;;4909662;28;95792;-76
2023/12/24 01:45:02;;;;;;;1.20;0.35;;;10.90;99.90;;;;;;4909453;28;95960;-75
2023/12/24 01:47:27;;;;;;;2.80;0.50;;;10.90;99.90;;;;;;4911112;28;92799;-76
2023/12/24 01:49:53;;;;;;;1.70;0.40;;;10.90;99.90;;;;;;4909055;28;93040;-76
2023/12/24 01:52:19;;;;;;;0.80;0.30;;;10.80;99.90;;;;;;4905458;28;93137;-77
2023/12/24 01:54:49;;;;;;;1.00;0.47;;;10.80;99.90;;;;;;4906355;28;93423;-76
2023/12/24 01:57:15;;;;;;;0.60;0.30;;;10.70;99.90;;;;;;4907632;28;92945;-76
2023/12/24 01:59:42;;;;;;;2.28;0.30;;;10.80;99.90;;;;;;4910903;28;91521;-76
2023/12/24 02:04:44;;;;;;;1.25;0.40;;;10.90;99.90;;;;;;4908784;28;93366;-77
2023/12/24 02:07:11;;;;;;;3.00;0.35;;;10.90;99.90;;;;;;4911940;28;93963;-76
2023/12/24 02:09:37;;;;;;;1.38;0.30;;;10.90;99.90;;;;;;4912081;28;92220;-76
2023/12/24 02:12:05;;;;;;;0.28;0.25;;;10.90;99.90;;;;;;4903063;28;95324;-77
2023/12/24 02:14:31;;;;;;;1.80;0.40;;;10.80;99.90;;;;;;4909811;28;94636;-76
2023/12/24 02:16:59;;;;;;;0.85;0.30;;;10.90;99.90;;;;;;4911694;28;93323;-76
2023/12/24 02:19:25;;;;;;;1.23;0.35;;;10.90;99.90;;;;;;4907561;28;92896;-76
2023/12/24 02:21:53;;;;;;;1.83;0.40;;;10.90;99.90;;;;;;4907512;28;93876;-76
2023/12/24 02:24:21;;;;;;;0.52;0.40;;;11.00;99.90;;;;;;4911633;28;94527;-77
2023/12/24 02:27:06;;;;;;;0.70;0.30;;;11.00;99.90;;;;;;4906434;28;93273;-76
2023/12/24 02:29:41;;;;;;;2.40;0.40;;;10.90;99.90;;;;;;4906715;28;92644;-77
2023/12/24 02:32:17;;;;;;;0.85;0.32;;;10.80;99.90;;;;;;4885527;28;96756;-75
2023/12/24 02:34:48;;;;;;;2.22;0.50;;;10.70;99.90;;;;;;4893492;28;97995;-76
2023/12/24 02:37:14;;;;;;;3.03;0.40;;;10.70;99.90;;;;;;4892623;28;92849;-75
2023/12/24 02:39:41;;;;;;;1.67;0.63;;;10.70;99.90;;;;;;4912307;28;92748;-76
2023/12/24 02:42:07;;;;;;;2.08;0.38;;;10.70;99.90;;;;;;4888972;28;96843;-76
2023/12/24 02:44:38;;;;;;;1.40;0.30;;;10.70;99.90;;;;;;4886687;28;94455;-76
2023/12/24 02:47:04;;;;;;;2.45;0.32;;;10.70;99.90;;;;;;4902478;28;92924;-76
2023/12/24 02:49:30;;;;;;;2.15;0.52;;;10.70;99.90;;;;;;4910072;28;92104;-76
2023/12/24 02:51:55;;;;;;;5.60;0.55;;;10.70;99.90;;;;;;4912165;28;93231;-76
2023/12/24 02:54:21;;;;;;;1.60;0.38;;;10.70;99.90;;;;;;4886153;28;95277;-76
2023/12/24 02:56:47;;;;;;;0.57;0.20;;;10.90;99.90;;;;;;4910529;28;93710;-77
2023/12/24 02:59:12;;;;;;;0.70;0.22;;;10.90;99.90;;;;;;4888877;28;93808;-77
2023/12/24 03:01:38;;;;;;;4.05;0.30;;;11.00;99.90;;;;;;4908134;28;96617;-78
2023/12/24 03:04:04;;;;;;;1.95;0.30;;;11.10;99.90;;;;;;4893248;28;95963;-77
2023/12/24 03:06:29;;;;;;;1.48;0.32;;;11.20;99.90;;;;;;4893706;28;93161;-76
2023/12/24 03:08:55;;;;;;;1.65;0.30;;;11.20;99.90;;;;;;4910216;28;92725;-76
2023/12/24 03:11:21;;;;;;;1.23;0.20;;;11.20;99.90;;;;;;4910053;28;94351;-76
2023/12/24 03:13:46;;;;;;;0.60;0.20;;;11.20;99.90;;;;;;4909827;28;93402;-76
2023/12/24 03:16:12;;;;;;;1.33;0.30;;;11.10;99.90;;;;;;4894022;28;93319;-76
2023/12/24 03:18:38;;;;;;;1.00;0.20;;;11.10;99.90;;;;;;4910820;28;92872;-81
2023/12/24 03:21:04;;;;;;;2.63;0.22;;;11.10;99.90;;;;;;4886439;28;95774;-77
2023/12/24 03:23:30;;;;;;;0.45;0.30;;;11.10;99.90;;;;;;4888294;28;98837;-77
2023/12/24 03:25:55;;;;;;;6.40;0.38;;;11.00;99.90;;;;;;4911858;28;92706;-77
2023/12/24 03:28:21;;;;;;;2.85;0.20;;;11.10;99.90;;;;;;4909852;28;93132;-79
2023/12/24 03:30:49;;;;;;;1.38;0.22;;;11.10;99.90;;;;;;4921643;28;94336;-81
2023/12/24 03:33:19;;;;;;;2.42;0.50;;;11.10;99.90;;;;;;4917428;28;100098;-79
2023/12/24 03:35:45;;;;;;;0.10;0.10;;;11.10;99.90;;;;;;4925113;28;93059;-80
2023/12/24 03:38:11;;;;;;;0.65;0.30;;;11.20;99.90;;;;;;4908321;28;92333;-80
2023/12/24 03:40:36;;;;;;;3.38;0.30;;;11.20;99.90;;;;;;4930834;28;92322;-81
2023/12/24 03:43:02;;;;;;;1.75;0.20;;;11.20;99.90;;;;;;4919586;28;93898;-80
2023/12/24 03:45:28;;;;;;;2.63;0.20;;;11.20;99.90;;;;;;4914809;28;93633;-82
2023/12/24 03:47:54;;;;;;;0.82;0.22;;;11.20;99.90;;;;;;4942072;28;91736;-82
2023/12/24 03:50:19;;;;;;;1.00;0.30;;;11.20;99.90;;;;;;4919757;28;93422;-82
2023/12/24 03:52:47;;;;;;;0.70;0.20;;;11.20;99.90;;;;;;4930648;28;94142;-82
2023/12/24 03:55:13;;;;;;;1.50;0.30;;;11.20;99.90;;;;;;4941073;28;92305;-82
2023/12/24 03:57:39;;;;;;;1.17;0.30;;;11.20;99.90;;;;;;4927556;28;92198;-82
2023/12/24 04:00:05;;;;;;;0.43;0.20;;;11.30;99.90;;;;;;4938508;28;94045;-82
2023/12/24 04:02:30;;;;;;;1.45;0.30;;;11.20;99.90;;;;;;4932463;28;94195;-81
2023/12/24 04:04:56;;;;;;;0.90;0.30;;;11.20;99.90;;;;;;4940163;28;92149;-80
2023/12/24 04:07:21;;;;;;;0.20;0.20;;;11.30;99.90;;;;;;4945937;28;97989;-82
2023/12/24 04:09:47;;;;;;;3.03;0.30;;;11.30;99.90;;;;;;4931290;28;93718;-81
2023/12/24 04:12:14;;;;;;;0.38;0.30;;;11.30;99.90;;;;;;4926842;28;93771;-83
2023/12/24 04:15:06;;;;;;;1.00;0.30;;;11.30;99.90;;;;;;4949213;28;91649;-81
2023/12/24 04:17:34;;;;;;;0.40;0.40;;;11.30;99.90;;;;;;4953883;28;91955;-82
2023/12/24 04:20:05;;;;;;;1.60;0.20;;;11.30;99.90;;;;;;4950745;28;91949;-82
2023/12/24 04:22:31;;;;;;;1.30;0.30;;;11.30;99.90;;;;;;4952147;28;93079;-80
2023/12/24 04:25:19;;;;;;;0.30;0.30;;;11.40;99.90;;;;;;4955516;28;92400;-85
2023/12/24 04:27:45;;;;;;;0.40;0.25;;;11.40;99.90;;;;;;4956572;28;90552;-84
2023/12/24 05:03:51;;;;;;;0.28;0.28;;;11.60;99.90;;;;;;2266795;22;92880;-81
2023/12/24 05:06:28;;;;;;;0.80;0.30;;;11.60;99.90;;;;;;4967903;28;91673;-84
2023/12/24 05:08:53;;;;;;;0.63;0.30;;;11.70;99.90;;;;;;4981153;28;91298;-85
2023/12/24 05:11:19;;;;;;;0.52;0.30;;;11.70;99.90;;;;;;4977178;28;92048;-85
2023/12/24 05:13:45;;;;;;;1.02;0.28;;;11.70;99.90;;;;;;4954056;28;92828;-82
2023/12/24 05:16:37;;;;;;;2.33;0.57;;;11.70;99.90;;;;;;4984744;28;91244;-83
2023/12/24 05:19:03;;;;;;;0.28;0.28;;;11.70;99.90;;;;;;4960167;28;90954;-83
2023/12/24 05:47:17;;;;;;;3.13;0.40;;;11.80;99.90;;;;;;4973317;28;92563;-82
2023/12/24 05:49:43;;;;;;;1.40;0.50;;;11.70;99.90;;;;;;4974724;28;92155;-81
2023/12/24 05:52:09;;;;;;;1.95;0.50;;;11.70;99.90;;;;;;4959074;28;95944;-83
2023/12/24 05:54:35;;;;;;;0.63;0.40;;;11.70;99.90;;;;;;4977824;28;95379;-82
2023/12/24 05:57:01;;;;;;;0.45;0.45;;;11.70;99.90;;;;;;4977902;28;91784;-82
2023/12/24 05:59:26;;;;;;;5.57;1.58;;;11.60;99.90;;;;;;4970310;28;92158;-81
2023/12/24 06:01:54;;;;;;;1.00;0.50;;;11.60;99.90;;;;;;4973809;28;92705;-80
2023/12/24 06:04:22;;;;;;;1.25;0.60;;;11.70;99.90;;;;;;4951256;28;93473;-82
2023/12/24 06:06:48;;;;;;;1.42;0.68;;;11.60;99.90;;;;;;4964892;28;92563;-80
2023/12/24 06:09:14;;;;;;;0.88;0.60;;;11.60;99.90;;;;;;4967723;28;91431;-82
2023/12/24 06:11:43;;;;;;;0.80;0.50;;;11.60;99.90;;;;;;4946356;28;94723;-80
2023/12/24 06:14:11;;;;;;;1.05;0.70;;;11.60;99.90;;;;;;4952898;28;93622;-82
2023/12/24 06:16:37;;;;;;;3.53;0.77;;;11.60;99.90;;;;;;4966092;28;94068;-78
2023/12/24 06:19:02;;;;;;;1.40;0.50;;;11.60;99.90;;;;;;4964812;28;92892;-79
2023/12/24 06:21:28;;;;;;;1.45;0.40;;;11.60;99.90;;;;;;4970902;28;93608;-79
2023/12/24 06:23:56;;;;;;;2.40;0.68;;;11.60;99.90;;;;;;4968241;28;96043;-80
2023/12/24 06:26:21;;;;;;;4.35;0.50;;;11.70;99.90;;;;;;4946248;28;93020;-80
2023/12/24 06:28:47;;;;;;;2.45;0.60;;;11.70;99.90;;;;;;4941264;28;93106;-79
2023/12/24 06:31:21;;;;;;;0.88;0.38;;;11.70;99.90;;;;;;4959890;28;93579;-79
2023/12/24 06:33:46;;;;;;;2.67;0.73;;;11.60;99.90;;;;;;4948665;28;96846;-79
2023/12/24 06:36:12;;;;;;;1.42;0.35;;;11.40;99.90;;;;;;4955159;28;92477;-79
2023/12/24 06:38:37;;;;;;;0.95;0.40;;;11.40;99.90;;;;;;4956561;28;92050;-79
2023/12/24 06:41:03;;;;;;;1.50;0.30;;;11.20;99.90;;;;;;4950206;28;95442;-79
2023/12/24 06:43:29;;;;;;;0.50;0.30;;;11.10;99.90;;;;;;4962797;28;93343;-79
2023/12/24 06:45:57;;;;;;;1.80;0.45;;;11.10;99.90;;;;;;4957099;28;92761;-82
2023/12/24 06:48:23;;;;;;;1.58;0.40;;;11.10;99.90;;;;;;4939034;28;93015;-79
2023/12/24 06:50:49;;;;;;;2.72;0.30;;;11.10;99.90;;;;;;4955138;28;92597;-78
2023/12/24 06:53:15;;;;;;;1.25;0.22;;;11.00;99.90;;;;;;4946891;28;93240;-78
2023/12/24 06:55:41;;;;;;;1.98;0.32;;;10.90;99.90;;;;;;4934099;28;93436;-79
2023/12/24 06:58:09;;;;;;;2.17;0.40;;;10.80;99.90;;;;;;4948970;28;92007;-78
2023/12/24 07:00:35;;;;;;;2.35;0.20;;;10.80;99.90;;;;;;4945369;28;93132;-79
2023/12/24 07:03:00;;;;;;;2.50;0.45;;;10.80;99.90;;;;;;4947947;28;94469;-78
2023/12/24 07:05:28;;;;;;;1.13;0.30;;;10.80;99.90;;;;;;4950677;28;94092;-78
2023/12/24 07:07:54;;;;;;;0.90;0.20;;;10.80;99.90;;;;;;4952313;28;92193;-80
2023/12/24 07:10:20;;;;;;;0.35;0.25;;;10.70;99.90;;;;;;4944628;28;93252;-80
2023/12/24 07:12:45;;;;;;;1.38;0.20;;;10.60;99.90;;;;;;4932749;28;93962;-79
2023/12/24 07:15:11;;;;;;;0.68;0.20;;;10.40;99.90;;;;;;4930770;28;92895;-80
2023/12/24 07:17:37;;;;;;;1.48;0.28;;;10.30;99.90;;;;;;4945118;28;92713;-80
2023/12/24 07:20:02;;;;;;;2.33;0.20;;;10.20;99.90;;;;;;4944978;28;95979;-80
2023/12/24 07:22:28;;;;;;;1.38;0.30;;;10.20;99.90;;;;;;4946998;28;92407;-80
2023/12/24 07:24:54;;;;;;;1.88;0.60;;;10.20;99.90;;;;;;4937134;28;92833;-80
2023/12/24 07:27:21;;;;;;;1.50;0.20;;;10.10;99.90;;;;;;4935999;28;92954;-81
2023/12/24 07:29:47;;;;;;;2.42;0.30;;;10.10;99.90;;;;;;4941205;28;95043;-79
2023/12/24 07:32:13;;;;;;;0.77;0.30;;;10.10;99.90;;;;;;4949819;28;96947;-79
2023/12/24 07:34:38;;;;;;;0.95;0.30;;;10.10;99.90;;;;;;4955497;28;92654;-81
2023/12/24 07:37:04;;;;;;;0.55;0.20;;;10.00;99.90;;;;;;4953590;28;93293;-80
2023/12/24 07:39:29;;;;;;;0.45;0.28;;;10.00;99.90;;;;;;4952733;28;93248;-78
2023/12/24 07:41:55;;;;;;;0.73;0.30;;;10.00;99.90;;;;;;4931251;28;94721;-79
2023/12/24 07:44:21;;;;;;;1.00;0.20;;;10.00;99.90;;;;;;4939130;28;92806;-83
2023/12/24 07:46:47;;;;;;;2.47;0.73;;;10.00;99.90;;;;;;4983583;28;97964;-84
2023/12/24 07:49:16;;;;;;;0.50;0.50;;;10.00;99.90;;;;;;4982384;28;92048;-83
2023/12/24 07:51:42;;;;;;;1.67;0.20;;;10.00;99.90;;;;;;4980898;28;93711;-85
2023/12/24 07:54:10;;;;;;;0.95;0.40;;;10.00;99.90;;;;;;4961134;28;92745;-80
2023/12/24 07:56:35;;;;;;;1.20;0.30;;;10.00;99.90;;;;;;4962799;28;92662;-80
2023/12/24 07:59:01;;;;;;;1.27;0.30;;;10.00;99.90;;;;;;4967783;28;92934;-84
2023/12/24 08:04:01;;;;;;;;;;;10.00;99.90;;;;;;4983339;28;92213;-82
2023/12/24 08:07:21;;;;;;;2.13;0.40;;;10.00;99.90;;;;;;4986782;28;92506;-85
2023/12/24 08:09:47;;;;;;;1.15;0.30;;;10.00;99.90;;;;;;4989625;28;97457;-84
2023/12/24 08:32:56;;;;;;;2.30;0.80;;;10.10;99.90;;;;;;4689836;22;93595;-83
2023/12/24 08:35:22;;;;;;;2.92;0.50;;;10.10;99.90;;;;;;4942964;28;92622;-80
2023/12/24 08:37:47;;;;;;;2.40;0.60;;;10.10;99.90;;;;;;4944442;28;91771;-79
2023/12/24 08:40:13;;;;;;;2.70;0.50;;;10.10;99.90;;;;;;4933986;28;97325;-81
2023/12/24 08:42:39;;;;;;;2.75;0.43;;;10.10;99.90;;;;;;4933594;28;93132;-81
2023/12/24 08:45:05;;;;;;;2.13;0.50;;;10.10;99.90;;;;;;4945669;28;93511;-79
2023/12/24 08:47:31;;;;;;;3.05;0.80;;;10.10;99.90;;;;;;4944235;28;92454;-81
2023/12/24 08:49:57;;;;;;;2.95;0.63;;;10.10;99.90;;;;;;4946431;28;93079;-82
2023/12/24 08:52:23;;;;;;;1.73;0.75;;;10.20;99.90;;;;;;4918624;28;94553;-79
2023/12/24 08:54:49;;;;;;;2.40;0.75;;;10.20;99.90;;;;;;4945923;28;92834;-80
2023/12/24 08:57:17;;;;;;;3.90;0.68;;;10.20;99.90;;;;;;4945055;28;92651;-79
2023/12/24 08:59:45;;;;;;;2.83;0.65;;;10.20;99.90;;;;;;4934116;28;93793;-77
2023/12/24 09:02:10;;;;;;;3.83;1.17;;;10.20;99.90;;;;;;4939701;28;92479;-83
2023/12/24 09:04:36;;;;;;;3.88;0.93;;;10.20;99.90;;;;;;4929742;28;92663;-81
2023/12/24 09:07:02;;;;;;;5.68;0.93;;;10.30;99.90;;;;;;4929120;28;92299;-79
2023/12/24 09:09:27;;;;;;;2.75;0.80;;;10.30;99.90;;;;;;4952225;28;95200;-81
2023/12/24 09:11:53;;;;;;;2.20;1.35;;;10.30;99.90;;;;;;4945362;28;93334;-81
2023/12/24 09:14:19;;;;;;;1.98;0.80;;;10.30;99.90;;;;;;4921176;28;92902;-80
2023/12/24 09:16:44;;;;;;;5.13;1.17;;;10.30;99.90;;;;;;4940253;28;92806;-77
2023/12/24 09:19:10;;;;;;;2.45;0.70;;;10.40;99.90;;;;;;4939681;28;94247;-79
2023/12/24 09:21:36;;;;;;;1.63;0.68;;;10.40;99.90;;;;;;4935720;28;96718;-80
2023/12/24 09:24:02;;;;;;;5.03;1.10;;;10.40;99.90;;;;;;4936123;28;92735;-79
2023/12/24 09:26:27;;;;;;;3.72;0.80;;;10.40;99.90;;;;;;4921259;28;92095;-84
2023/12/24 09:28:53;;;;;;;4.15;0.90;;;10.40;99.90;;;;;;4923960;28;93220;-82
2023/12/24 09:31:19;;;;;;;2.67;0.88;;;10.40;99.90;;;;;;4936335;28;94429;-80
2023/12/24 09:33:45;;;;;;;4.38;1.20;;;10.40;99.90;;;;;;4936716;28;93684;-81
2023/12/24 09:36:11;;;;;;;2.70;0.70;;;10.40;99.90;;;;;;4917525;28;93177;-83
2023/12/24 09:38:36;;;;;;;2.97;0.80;;;10.50;99.90;;;;;;4919685;28;93692;-81
2023/12/24 09:41:02;;;;;;;1.55;0.75;;;10.50;99.90;;;;;;4917789;28;93862;-79
2023/12/24 09:43:33;;;;;;;2.22;0.80;;;10.50;99.90;;;;;;4912605;28;92901;-80
2023/12/24 09:45:59;;;;;;;1.13;0.60;;;10.50;99.90;;;;;;4915609;28;93155;-80
2023/12/24 09:48:25;;;;;;;4.63;0.73;;;10.50;99.90;;;;;;4943130;28;92944;-81
2023/12/24 09:50:50;;;;;;;1.20;0.77;;;10.50;99.90;;;;;;4939535;28;93282;-80
2023/12/24 09:53:16;;;;;;;4.55;0.80;;;10.50;99.90;;;;;;4923659;28;93055;-77
2023/12/24 09:55:42;;;;;;;5.50;1.13;;;10.50;99.90;;;;;;4942462;28;92184;-79
2023/12/24 09:58:08;;;;;;;2.45;0.75;;;10.60;99.90;;;;;;4940203;28;95091;-79
2023/12/24 10:00:33;;;;;;;2.72;0.70;;;10.60;99.90;;;;;;4940010;28;94775;-80
2023/12/24 10:02:59;;;;;;;1.83;0.82;;;10.60;99.90;;;;;;4938761;28;92634;-80
2023/12/24 10:05:25;;;;;;;2.87;1.20;;;10.70;99.90;;;;;;4919474;28;93311;-79
2023/12/24 10:07:51;;;;;;;1.02;0.50;;;10.70;99.90;;;;;;4944647;28;92671;-80
2023/12/24 10:10:29;;;;;;;2.30;0.85;;;10.70;99.90;;;;;;4935177;28;95373;-77
2023/12/24 10:13:07;;;;;;;1.42;0.88;;;10.70;99.90;;;;;;4920560;28;92341;-80
2023/12/24 10:15:38;;;;;;;4.35;0.80;;;10.70;99.90;;;;;;4937775;28;92062;-80
2023/12/24 10:18:19;;;;;;;3.65;0.93;;;10.70;99.90;;;;;;4936563;28;95357;-78
2023/12/24 10:20:46;;;;;;;2.35;0.68;;;10.70;99.90;;;;;;4938265;28;93005;-78
2023/12/24 10:23:12;;;;;;;4.03;0.60;;;10.70;99.90;;;;;;4921858;28;93560;-79
2023/12/24 10:25:37;;;;;;;6.25;0.93;;;10.70;99.90;;;;;;4925715;28;92871;-79
2023/12/24 10:28:07;;;;;;;1.63;0.70;;;10.70;99.90;;;;;;4924799;28;96925;-79
2023/12/24 10:30:33;;;;;;;2.55;0.70;;;10.80;99.90;;;;;;4915104;28;96443;-79
2023/12/24 10:33:09;;;;;;;3.75;1.10;;;10.80;99.90;;;;;;4939134;28;92972;-79
2023/12/24 10:35:36;;;;;;;4.45;0.95;;;10.80;99.90;;;;;;4926875;28;92562;-77
2023/12/24 10:38:19;;;;;;;3.65;1.23;;;10.80;99.90;;;;;;4924713;28;95450;-78
2023/12/24 10:40:45;;;;;;;6.13;1.98;;;10.80;99.90;;;;;;4938949;28;92243;-81
2023/12/24 10:43:11;;;;;;;2.90;1.10;;;10.80;99.90;;;;;;4937485;28;93122;-82
2023/12/24 10:45:36;;;;;;;1.70;0.90;;;10.80;99.90;;;;;;4943163;28;92179;-81
2023/12/24 10:48:03;;;;;;;8.05;1.10;;;10.80;99.90;;;;;;4937526;28;94639;-80
2023/12/24 10:50:28;;;;;;;2.40;1.20;;;10.80;99.90;;;;;;4916714;28;95013;-80
2023/12/24 10:52:54;;;;;;;3.10;1.05;;;10.90;99.90;;;;;;4918632;28;92711;-78
2023/12/24 10:55:21;;;;;;;2.53;1.00;;;10.90;99.90;;;;;;4916548;28;92784;-80
2023/12/24 10:58:01;;;;;;;3.08;0.90;;;10.90;99.90;;;;;;4938099;28;92668;-80
2023/12/24 11:00:27;;;;;;;5.50;1.88;;;10.90;99.90;;;;;;4922047;28;100762;-81
2023/12/24 11:02:53;;;;;;;3.63;0.95;;;10.90;99.90;;;;;;4925784;28;93027;-78
2023/12/24 11:05:42;;;;;;;2.47;1.00;;;10.90;99.90;;;;;;4917559;28;92563;-79
2023/12/24 11:08:19;;;;;;;2.25;0.77;;;10.90;99.90;;;;;;4935498;28;94718;-80
2023/12/24 11:10:56;;;;;;;3.05;0.80;;;10.90;99.90;;;;;;4952758;28;94181;-80
2023/12/24 11:13:34;;;;;;;3.65;0.90;;;11.00;99.90;;;;;;4945922;28;94136;-80
2023/12/24 11:16:02;;;;;;;5.60;1.35;;;11.00;99.90;;;;;;4946430;28;92313;-79
2023/12/24 11:18:48;;;;;;;3.20;0.65;;;10.90;99.90;;;;;;4939454;28;92860;-79
2023/12/24 11:21:19;;;;;;;3.08;0.98;;;11.00;99.90;;;;;;4943429;28;97659;-82
2023/12/24 11:24:14;;;;;;;1.55;0.50;;;11.00;99.90;;;;;;4939024;28;92366;-80
2023/12/24 11:26:52;;;;;;;3.88;0.52;;;11.00;99.90;;;;;;4938654;28;92731;-80
2023/12/24 11:29:41;;;;;;;1.33;0.55;;;11.00;99.90;;;;;;4936469;28;96550;-82
2023/12/24 11:32:26;;;;;;;1.27;0.40;;;11.00;99.90;;;;;;4953052;28;95338;-80
2023/12/24 12:03:18;;;;;;;;;;;11.10;99.90;;;;;;4957572;28;96072;-80
2023/12/24 12:05:44;;;;;;;3.17;1.10;;;11.10;99.90;;;;;;4969300;28;93495;-81
2023/12/24 12:08:10;;;;;;;0.65;0.65;;;11.20;99.90;;;;;;4941767;28;92324;-79
2023/12/24 12:10:38;;;;;;;3.58;0.90;;;11.10;99.90;;;;;;4953583;28;93698;-82
2023/12/24 12:13:05;;;;;;;3.28;0.63;;;11.10;99.90;;;;;;4958622;28;92497;-80
2023/12/24 12:15:31;;;;;;;1.27;0.50;;;11.10;99.90;;;;;;4947194;28;91978;-82
2023/12/24 12:18:02;;;;;;;2.00;0.52;;;11.10;99.90;;;;;;4944874;28;92202;-84
2023/12/24 12:20:28;;;;;;;3.05;0.50;;;11.10;99.90;;;;;;4980351;28;92081;-84
2023/12/24 12:23:01;;;;;;;1.73;0.40;;;11.20;99.90;;;;;;4935752;28;95259;-83
2023/12/24 12:25:28;;;;;;;;;;;11.10;99.90;;;;;;4962305;28;92067;-83
2023/12/24 12:27:56;;;;;;;0.47;0.38;;;11.20;99.90;;;;;;4973244;28;92003;-82
2023/12/24 12:30:23;;;;;;;0.98;0.40;;;11.10;99.90;;;;;;4945187;28;97902;-81
2023/12/24 12:32:49;;;;;;;3.20;0.50;;;11.10;99.90;;;;;;4964269;28;93219;-80
2023/12/24 12:35:27;;;;;;;0.50;0.40;;;11.10;99.90;;;;;;4964918;28;92558;-83
2023/12/24 12:37:53;;;;;;;2.33;0.70;;;11.10;99.90;;;;;;4964103;28;93392;-82
2023/12/24 12:40:19;;;;;;;1.48;0.50;;;11.10;99.90;;;;;;4947904;28;93140;-80
2023/12/24 12:42:45;;;;;;;1.05;0.52;;;11.10;99.90;;;;;;4971026;28;91864;-83
2023/12/24 12:45:12;;;;;;;1.25;0.60;;;11.10;99.90;;;;;;4965125;28;92701;-80
2023/12/24 12:47:38;;;;;;;3.42;0.80;;;11.10;99.90;;;;;;4969243;28;91307;-81
2023/12/24 12:50:06;;;;;;;2.50;0.60;;;11.10;99.90;;;;;;4969206;28;96303;-83
2023/12/24 12:52:32;;;;;;;1.15;0.77;;;11.10;99.90;;;;;;4952813;28;92430;-83
2023/12/24 12:55:05;;;;;;;2.15;0.70;;;11.10;99.90;;;;;;4948325;28;93039;-81
2023/12/24 12:57:36;;;;;;;3.03;0.60;;;11.10;99.90;;;;;;4967040;28;91652;-81
2023/12/24 13:00:44;;;;;;;1.55;0.70;;;11.10;99.90;;;;;;4951194;28;93128;-82
2023/12/24 13:03:11;;;;;;;1.25;0.70;;;11.10;99.90;;;;;;4958436;28;91858;-83
2023/12/24 13:05:42;;;;;;;2.65;0.68;;;11.10;99.90;;;;;;4966168;28;92056;-81
2023/12/24 13:08:16;;;;;;;1.85;0.60;;;11.10;99.90;;;;;;4961777;28;92257;-80
2023/12/24 13:10:50;;;;;;;1.30;0.70;;;11.10;99.90;;;;;;4950562;28;93147;-82
2023/12/24 13:13:21;;;;;;;1.33;0.60;;;11.10;99.90;;;;;;4961665;28;92244;-80
2023/12/24 13:16:02;;;;;;;1.58;0.80;;;11.10;99.90;;;;;;4967692;28;92175;-83
2023/12/24 13:18:29;;;;;;;2.85;1.00;;;11.10;99.90;;;;;;4964455;28;92090;-80
2023/12/24 13:20:56;;;;;;;2.65;0.63;;;11.20;99.90;;;;;;4951238;28;97536;-83
2023/12/24 13:23:24;;;;;;;3.40;0.77;;;11.20;99.90;;;;;;4966351;28;93256;-80
2023/12/24 13:25:52;;;;;;;1.98;0.75;;;11.10;99.90;;;;;;4967684;28;92512;-81
2023/12/24 13:28:18;;;;;;;2.35;0.80;;;11.20;99.90;;;;;;4969232;28;92261;-82
2023/12/24 13:30:58;;;;;;;1.27;0.70;;;11.20;99.90;;;;;;4954549;28;92723;-80
2023/12/24 13:33:24;;;;;;;2.15;0.63;;;11.20;99.90;;;;;;4954851;28;95613;-80
2023/12/24 13:36:00;;;;;;;2.00;0.85;;;11.20;99.90;;;;;;4956216;28;92622;-79
2023/12/24 13:38:27;;;;;;;1.13;0.60;;;11.20;99.90;;;;;;4970338;28;91825;-83
2023/12/24 13:40:53;;;;;;;1.55;0.85;;;11.20;99.90;;;;;;4966986;28;92701;-82
2023/12/24 13:43:18;;;;;;;1.85;0.60;;;11.20;99.90;;;;;;4968544;28;92245;-79
2023/12/24 13:45:44;;;;;;;1.20;0.60;;;11.30;99.90;;;;;;4968974;28;93468;-82
2023/12/24 13:48:13;;;;;;;1.65;0.77;;;11.30;99.90;;;;;;4969407;28;91907;-82
2023/12/24 13:50:52;;;;;;;1.15;0.65;;;11.30;99.90;;;;;;4955856;28;92220;-81
2023/12/24 13:53:18;;;;;;;3.05;0.93;;;11.30;99.90;;;;;;4956079;28;92852;-79
2023/12/24 13:55:45;;;;;;;2.92;0.80;;;11.30;99.90;;;;;;4964656;28;92073;-80
2023/12/24 13:58:11;;;;;;;2.45;1.00;;;11.40;99.90;;;;;;4961278;28;92090;-81
2023/12/24 14:00:37;;;;;;;2.13;0.77;;;11.40;99.90;;;;;;4962677;28;93718;-81
2023/12/24 14:03:05;;;;;;;4.32;1.10;;;11.40;99.90;;;;;;4960861;28;92082;-81
2023/12/24 14:05:31;;;;;;;1.25;0.80;;;11.40;99.90;;;;;;4950663;28;92716;-81
2023/12/24 14:07:57;;;;;;;2.45;0.90;;;11.40;99.90;;;;;;4959257;28;92009;-79
2023/12/24 14:10:23;;;;;;;2.67;0.90;;;11.40;99.90;;;;;;4960720;28;95065;-79
2023/12/24 14:12:49;;;;;;;1.98;1.20;;;11.50;99.90;;;;;;4971504;28;92595;-81
2023/12/24 14:15:16;;;;;;;1.58;0.88;;;11.50;99.90;;;;;;4965681;28;92260;-81
2023/12/24 14:18:01;;;;;;;1.25;1.00;;;11.50;99.90;;;;;;4964288;28;94362;-81
2023/12/24 14:20:27;;;;;;;1.55;0.80;;;11.50;99.90;;;;;;4956420;28;93521;-84
2023/12/24 14:22:53;;;;;;;2.20;1.10;;;11.50;99.90;;;;;;4964410;28;92180;-84
2023/12/24 14:25:19;;;;;;;2.95;1.15;;;11.50;99.90;;;;;;4962387;28;92672;-78
2023/12/24 14:27:45;;;;;;;5.63;1.17;;;11.50;99.90;;;;;;4949801;28;91501;-82
2023/12/24 14:30:11;;;;;;;1.90;1.63;;;11.60;99.90;;;;;;4966823;28;93534;-82
2023/12/24 14:32:37;;;;;;;3.15;1.10;;;11.60;99.90;;;;;;4968489;28;92038;-82
2023/12/24 14:35:07;;;;;;;1.85;1.25;;;11.60;99.90;;;;;;4947733;28;93168;-81
2023/12/24 14:37:33;;;;;;;2.47;1.23;;;11.60;99.90;;;;;;4956690;28;92695;-81
2023/12/24 14:39:59;;;;;;;1.83;1.17;;;11.60;99.90;;;;;;4962759;28;92387;-80
2023/12/24 14:42:29;;;;;;;2.78;1.33;;;11.60;99.90;;;;;;4961771;28;92132;-82
2023/12/24 14:44:57;;;;;;;5.72;1.48;;;11.60;99.90;;;;;;4951628;28;91341;-82